sensor_id;sensor_type;location;lat;lon;timestamp;P1;P2;P0
74434;PMS7003;62867;52.038;29.256;2023-05-29T00:02:22;1.8;1;0.4
74434;PMS7003;62867;52.038;29.256;2023-05-29T00:07:22;1.6;0.8;0.2
74434;PMS7003;62867;52.038;29.256;2023-05-29T00:11:42;2;1.2;0
74434;PMS7003;62867;52.038;29.256;2023-05-29T00:16:42;1.8;0.8;0.2
74434;PMS7003;62867;52.038;29.256;2023-05-29T00:22:06;1.4;0.6;0.2
74434;PMS7003;62867;52.038;29.256;2023-05-29T00:27:20;2;0.8;0
74434;PMS7003;62867;52.038;29.256;2023-05-29T00:31:32;1.8;1;0.3
74434;PMS7003;62867;52.038;29.256;2023-05-29T00:37:06;1.2;0.6;0.4
74434;PMS7003;62867;52.038;29.256;2023-05-29T00:42:22;1.6;0.8;0.2
74434;PMS7003;62867;52.038;29.256;2023-05-29T00:47:10;1.2;1;0.2
74434;PMS7003;62867;52.038;29.256;2023-05-29T00:51:50;1.8;0.6;0.4
74434;PMS7003;62867;52.038;29.256;2023-05-29T00:56:56;2.8;1.4;0.6
74434;PMS7003;62867;52.038;29.256;2023-05-29T01:02:06;2.4;1;0.2
74434;PMS7003;62867;52.038;29.256;2023-05-29T01:06:42;1.6;1.2;0
74434;PMS7003;62867;52.038;29.256;2023-05-29T01:12:17;2;1;0.4
74434;PMS7003;62867;52.038;29.256;2023-05-29T01:17:22;2.4;1.8;1
74434;PMS7003;62867;52.038;29.256;2023-05-29T01:21:37;2.4;1.6;0.8
74434;PMS7003;62867;52.038;29.256;2023-05-29T01:27:06;2.8;1.6;1
74434;PMS7003;62867;52.038;29.256;2023-05-29T01:31:32;2.8;1.6;1
74434;PMS7003;62867;52.038;29.256;2023-05-29T01:36:50;3;2;1
74434;PMS7003;62867;52.038;29.256;2023-05-29T01:42:24;2.4;1.6;1
74434;PMS7003;62867;52.038;29.256;2023-05-29T01:47:08;3.2;2.4;1
74434;PMS7003;62867;52.038;29.256;2023-05-29T01:52:22;0;0;0
74434;PMS7003;62867;52.038;29.256;2023-05-29T01:57:00;0;0;0
74434;PMS7003;62867;52.038;29.256;2023-05-29T02:01:44;0;0;0
74434;PMS7003;62867;52.038;29.256;2023-05-29T02:06:44;0;0;0
74434;PMS7003;62867;52.038;29.256;2023-05-29T02:11:32;0;0;0
74434;PMS7003;62867;52.038;29.256;2023-05-29T02:17:08;0;0;0
74434;PMS7003;62867;52.038;29.256;2023-05-29T02:21:56;0;0;0
74434;PMS7003;62867;52.038;29.256;2023-05-29T02:26:32;0;0;0
74434;PMS7003;62867;52.038;29.256;2023-05-29T02:32:24;0;0;0
74434;PMS7003;62867;52.038;29.256;2023-05-29T02:37:24;0;0;0
74434;PMS7003;62867;52.038;29.256;2023-05-29T02:41:44;0;0;0
74434;PMS7003;62867;52.038;29.256;2023-05-29T02:46:32;0;0;0
74434;PMS7003;62867;52.038;29.256;2023-05-29T02:52:24;0.2;0;0
74434;PMS7003;62867;52.038;29.256;2023-05-29T02:57:24;0.4;0;0
74434;PMS7003;62867;52.038;29.256;2023-05-29T03:01:44;0;0;0
74434;PMS7003;62867;52.038;29.256;2023-05-29T03:07:08;0;0;0
74434;PMS7003;62867;52.038;29.256;2023-05-29T03:12:14;0;0;0
74434;PMS7003;62867;52.038;29.256;2023-05-29T03:17:14;0.2;0;0
74434;PMS7003;62867;52.038;29.256;2023-05-29T03:21:32;0;0;0
74434;PMS7003;62867;52.038;29.256;2023-05-29T03:26:32;0;0;0
74434;PMS7003;62867;52.038;29.256;2023-05-29T03:32:08;0;0;0
74434;PMS7003;62867;52.038;29.256;2023-05-29T03:36:44;0;0;0
74434;PMS7003;62867;52.038;29.256;2023-05-29T03:42:14;0.2;0;0
74434;PMS7003;62867;52.038;29.256;2023-05-29T03:47:24;0;0;0
74434;PMS7003;62867;52.038;29.256;2023-05-29T03:51:32;0;0;0
74434;PMS7003;62867;52.038;29.256;2023-05-29T03:56:52;0;0;0
74434;PMS7003;62867;52.038;29.256;2023-05-29T04:01:54;0;0;0
74434;PMS7003;62867;52.038;29.256;2023-05-29T04:07:08;0;0;0
74434;PMS7003;62867;52.038;29.256;2023-05-29T04:12:24;0;0;0
74434;PMS7003;62867;52.038;29.256;2023-05-29T04:16:34;0;0;0
74434;PMS7003;62867;52.038;29.256;2023-05-29T04:22:22;0;0;0
74434;PMS7003;62867;52.038;29.256;2023-05-29T04:27:08;0;0;0
74434;PMS7003;62867;52.038;29.256;2023-05-29T04:31:46;0;0;0
74434;PMS7003;62867;52.038;29.256;2023-05-29T04:37:08;0.3;0;0
74434;PMS7003;62867;52.038;29.256;2023-05-29T04:41:44;0;0;0
74434;PMS7003;62867;52.038;29.256;2023-05-29T04:47:10;0;0;0
74434;PMS7003;62867;52.038;29.256;2023-05-29T04:52:22;0;0;0
74434;PMS7003;62867;52.038;29.256;2023-05-29T04:56:44;0;0;0
74434;PMS7003;62867;52.038;29.256;2023-05-29T05:02:08;0;0;0
74434;PMS7003;62867;52.038;29.256;2023-05-29T05:07:14;0;0;0
74434;PMS7003;62867;52.038;29.256;2023-05-29T05:11:32;0;0;0
74434;PMS7003;62867;52.038;29.256;2023-05-29T05:17:24;0;0;0
74434;PMS7003;62867;52.038;29.256;2023-05-29T05:21:58;0;0;0
74434;PMS7003;62867;52.038;29.256;2023-05-29T05:27:03;0;0;0
74434;PMS7003;62867;52.038;29.256;2023-05-29T05:31:44;0;0;0
74434;PMS7003;62867;52.038;29.256;2023-05-29T05:37:24;0;0;0
74434;PMS7003;62867;52.038;29.256;2023-05-29T05:42:08;0;0;0
74434;PMS7003;62867;52.038;29.256;2023-05-29T05:46:40;0;0;0
74434;PMS7003;62867;52.038;29.256;2023-05-29T05:52:00;0;0;0
74434;PMS7003;62867;52.038;29.256;2023-05-29T05:57:24;0;0;0
74434;PMS7003;62867;52.038;29.256;2023-05-29T06:02:24;0;0;0
74434;PMS7003;62867;52.038;29.256;2023-05-29T06:07:24;0;0;0
74434;PMS7003;62867;52.038;29.256;2023-05-29T06:12:14;0;0;0
74434;PMS7003;62867;52.038;29.256;2023-05-29T06:16:42;0;0;0
74434;PMS7003;62867;52.038;29.256;2023-05-29T06:21:46;0;0;0
74434;PMS7003;62867;52.038;29.256;2023-05-29T06:27:08;0;0;0
74434;PMS7003;62867;52.038;29.256;2023-05-29T06:32:06;0;0;0
74434;PMS7003;62867;52.038;29.256;2023-05-29T06:36:46;0;0;0
74434;PMS7003;62867;52.038;29.256;2023-05-29T06:42:24;0;0;0
74434;PMS7003;62867;52.038;29.256;2023-05-29T06:46:46;0;0;0
74434;PMS7003;62867;52.038;29.256;2023-05-29T06:52:24;0;0;0
74434;PMS7003;62867;52.038;29.256;2023-05-29T06:56:40;0;0;0
74434;PMS7003;62867;52.038;29.256;2023-05-29T07:01:58;0;0;0
74434;PMS7003;62867;52.038;29.256;2023-05-29T07:07:08;0;0;0
74434;PMS7003;62867;52.038;29.256;2023-05-29T07:12:08;0;0;0
74434;PMS7003;62867;52.038;29.256;2023-05-29T07:17:24;0;0;0
74434;PMS7003;62867;52.038;29.256;2023-05-29T07:22:24;0;0;0
74434;PMS7003;62867;52.038;29.256;2023-05-29T07:26:44;0;0;0
74434;PMS7003;62867;52.038;29.256;2023-05-29T07:32:06;0;0;0
74434;PMS7003;62867;52.038;29.256;2023-05-29T07:36:32;0;0;0
74434;PMS7003;62867;52.038;29.256;2023-05-29T07:41:44;0;0;0
74434;PMS7003;62867;52.038;29.256;2023-05-29T07:47:24;0;0;0
74434;PMS7003;62867;52.038;29.256;2023-05-29T07:52:08;0;0;0
74434;PMS7003;62867;52.038;29.256;2023-05-29T07:57:15;0;0;0
74434;PMS7003;62867;52.038;29.256;2023-05-29T08:02:02;0;0;0
74434;PMS7003;62867;52.038;29.256;2023-05-29T08:07:22;0;0;0
74434;PMS7003;62867;52.038;29.256;2023-05-29T08:11:58;0;0;0
74434;PMS7003;62867;52.038;29.256;2023-05-29T08:16:53;0;0;0
74434;PMS7003;62867;52.038;29.256;2023-05-29T08:21:44;0;0;0
74434;PMS7003;62867;52.038;29.256;2023-05-29T08:27:24;0;0;0
74434;PMS7003;62867;52.038;29.256;2023-05-29T08:32:24;0;0;0
74434;PMS7003;62867;52.038;29.256;2023-05-29T08:37:22;0;0;0
74434;PMS7003;62867;52.038;29.256;2023-05-29T08:42:17;0;0;0
74434;PMS7003;62867;52.038;29.256;2023-05-29T08:46:56;0;0;0
74434;PMS7003;62867;52.038;29.256;2023-05-29T08:52:16;0;0;0
74434;PMS7003;62867;52.038;29.256;2023-05-29T08:56:52;0;0;0
74434;PMS7003;62867;52.038;29.256;2023-05-29T09:02:24;0;0;0
74434;PMS7003;62867;52.038;29.256;2023-05-29T09:06:42;0;0;0
74434;PMS7003;62867;52.038;29.256;2023-05-29T09:12:22;0;0;0
74434;PMS7003;62867;52.038;29.256;2023-05-29T09:17:12;0;0;0
74434;PMS7003;62867;52.038;29.256;2023-05-29T09:22:20;0;0;0
74434;PMS7003;62867;52.038;29.256;2023-05-29T09:26:58;0;0;0
74434;PMS7003;62867;52.038;29.256;2023-05-29T09:32:08;0;0;0
74434;PMS7003;62867;52.038;29.256;2023-05-29T09:36:58;0;0;0
74434;PMS7003;62867;52.038;29.256;2023-05-29T09:41:44;0;0;0
74434;PMS7003;62867;52.038;29.256;2023-05-29T09:47:24;0;0;0
74434;PMS7003;62867;52.038;29.256;2023-05-29T09:52:24;0;0;0
74434;PMS7003;62867;52.038;29.256;2023-05-29T09:56:32;0;0;0
74434;PMS7003;62867;52.038;29.256;2023-05-29T10:02:06;0;0;0
74434;PMS7003;62867;52.038;29.256;2023-05-29T10:06:58;0;0;0
74434;PMS7003;62867;52.038;29.256;2023-05-29T10:11:58;0;0;0
74434;PMS7003;62867;52.038;29.256;2023-05-29T10:17:23;0;0;0
74434;PMS7003;62867;52.038;29.256;2023-05-29T10:22:08;0;0;0
74434;PMS7003;62867;52.038;29.256;2023-05-29T10:27:14;0;0;0
74434;PMS7003;62867;52.038;29.256;2023-05-29T10:32:01;0;0;0
74434;PMS7003;62867;52.038;29.256;2023-05-29T10:37:27;0;0;0
74434;PMS7003;62867;52.038;29.256;2023-05-29T10:41:56;0;0;0
74434;PMS7003;62867;52.038;29.256;2023-05-29T10:47:22;0;0;0
74434;PMS7003;62867;52.038;29.256;2023-05-29T10:51:40;0.2;0;0
74434;PMS7003;62867;52.038;29.256;2023-05-29T10:57:24;0;0;0
74434;PMS7003;62867;52.038;29.256;2023-05-29T11:02:10;0;0;0
74434;PMS7003;62867;52.038;29.256;2023-05-29T11:07:31;0;0;0
74434;PMS7003;62867;52.038;29.256;2023-05-29T11:12:15;0;0;0
74434;PMS7003;62867;52.038;29.256;2023-05-29T11:16:35;0;0;0
74434;PMS7003;62867;52.038;29.256;2023-05-29T11:21:46;0;0;0
74434;PMS7003;62867;52.038;29.256;2023-05-29T11:26:52;0;0;0
74434;PMS7003;62867;52.038;29.256;2023-05-29T11:32:24;0;0;0
74434;PMS7003;62867;52.038;29.256;2023-05-29T11:37:08;0;0;0
74434;PMS7003;62867;52.038;29.256;2023-05-29T11:42:24;0;0;0
74434;PMS7003;62867;52.038;29.256;2023-05-29T11:47:14;0;0;0
74434;PMS7003;62867;52.038;29.256;2023-05-29T11:52:24;0;0;0
74434;PMS7003;62867;52.038;29.256;2023-05-29T11:56:32;0.4;0.4;0
74434;PMS7003;62867;52.038;29.256;2023-05-29T12:01:58;0;0;0
74434;PMS7003;62867;52.038;29.256;2023-05-29T12:07:16;0;0;0
74434;PMS7003;62867;52.038;29.256;2023-05-29T12:11:33;0;0;0
74434;PMS7003;62867;52.038;29.256;2023-05-29T12:17:24;0;0;0
74434;PMS7003;62867;52.038;29.256;2023-05-29T12:22:31;0;0;0
74434;PMS7003;62867;52.038;29.256;2023-05-29T12:26:32;0;0;0
74434;PMS7003;62867;52.038;29.256;2023-05-29T12:32:09;0.2;0;0
74434;PMS7003;62867;52.038;29.256;2023-05-29T12:37:03;0;0;0
74434;PMS7003;62867;52.038;29.256;2023-05-29T12:41:54;0;0;0
74434;PMS7003;62867;52.038;29.256;2023-05-29T12:47:24;0;0;0
74434;PMS7003;62867;52.038;29.256;2023-05-29T12:52:08;0;0;0
74434;PMS7003;62867;52.038;29.256;2023-05-29T12:57:14;0;0;0
74434;PMS7003;62867;52.038;29.256;2023-05-29T13:01:32;0.8;0.4;0
74434;PMS7003;62867;52.038;29.256;2023-05-29T13:06:44;0;0;0
74434;PMS7003;62867;52.038;29.256;2023-05-29T13:11:56;0;0;0
74434;PMS7003;62867;52.038;29.256;2023-05-29T13:16:40;0;0;0
74434;PMS7003;62867;52.038;29.256;2023-05-29T13:21:52;0;0;0
74434;PMS7003;62867;52.038;29.256;2023-05-29T13:27:08;0;0;0
74434;PMS7003;62867;52.038;29.256;2023-05-29T13:31:32;0;0;0
74434;PMS7003;62867;52.038;29.256;2023-05-29T13:37:24;0;0;0
74434;PMS7003;62867;52.038;29.256;2023-05-29T13:42:24;0;0;0
74434;PMS7003;62867;52.038;29.256;2023-05-29T13:47:06;0;0;0
74434;PMS7003;62867;52.038;29.256;2023-05-29T13:51:58;0;0;0
74434;PMS7003;62867;52.038;29.256;2023-05-29T13:57:08;0;0;0
74434;PMS7003;62867;52.038;29.256;2023-05-29T14:02:24;0;0;0
74434;PMS7003;62867;52.038;29.256;2023-05-29T14:07:08;0;0;0
74434;PMS7003;62867;52.038;29.256;2023-05-29T14:12:24;0;0;0
74434;PMS7003;62867;52.038;29.256;2023-05-29T14:17:14;0.4;0.2;0.2
74434;PMS7003;62867;52.038;29.256;2023-05-29T14:21:44;0.6;0.6;0.6
74434;PMS7003;62867;52.038;29.256;2023-05-29T14:26:52;2.6;2.6;2.6
74434;PMS7003;62867;52.038;29.256;2023-05-29T14:31:46;1.2;1.2;1.2
74434;PMS7003;62867;52.038;29.256;2023-05-29T14:37:24;0;0;0
74434;PMS7003;62867;52.038;29.256;2023-05-29T14:42:00;0;0;0
74434;PMS7003;62867;52.038;29.256;2023-05-29T14:47:24;0.3;0;0
74434;PMS7003;62867;52.038;29.256;2023-05-29T14:52:22;0;0;0
74434;PMS7003;62867;52.038;29.256;2023-05-29T14:56:32;0;0;0
74434;PMS7003;62867;52.038;29.256;2023-05-29T15:02:00;0;0;0
74434;PMS7003;62867;52.038;29.256;2023-05-29T15:06:32;0.2;0.2;0.2
74434;PMS7003;62867;52.038;29.256;2023-05-29T15:11:32;0;0;0
74434;PMS7003;62867;52.038;29.256;2023-05-29T15:17:24;0;0;0
74434;PMS7003;62867;52.038;29.256;2023-05-29T15:22:08;0;0;0
74434;PMS7003;62867;52.038;29.256;2023-05-29T15:27:22;0;0;0
74434;PMS7003;62867;52.038;29.256;2023-05-29T15:31:44;0;0;0
74434;PMS7003;62867;52.038;29.256;2023-05-29T15:36:32;0;0;0
74434;PMS7003;62867;52.038;29.256;2023-05-29T15:41:56;0;0;0
74434;PMS7003;62867;52.038;29.256;2023-05-29T15:46:32;0;0;0
74434;PMS7003;62867;52.038;29.256;2023-05-29T15:51:52;0;0;0
74434;PMS7003;62867;52.038;29.256;2023-05-29T15:57:08;0;0;0
74434;PMS7003;62867;52.038;29.256;2023-05-29T16:01:44;0;0;0
74434;PMS7003;62867;52.038;29.256;2023-05-29T16:07:24;0;0;0
74434;PMS7003;62867;52.038;29.256;2023-05-29T16:12:22;0;0;0
74434;PMS7003;62867;52.038;29.256;2023-05-29T16:16:46;0;0;0
74434;PMS7003;62867;52.038;29.256;2023-05-29T16:21:44;0;0;0
74434;PMS7003;62867;52.038;29.256;2023-05-29T16:27:08;0;0;0
74434;PMS7003;62867;52.038;29.256;2023-05-29T16:32:24;0;0;0
74434;PMS7003;62867;52.038;29.256;2023-05-29T16:36:42;0;0;0
74434;PMS7003;62867;52.038;29.256;2023-05-29T16:42:08;0;0;0
74434;PMS7003;62867;52.038;29.256;2023-05-29T16:47:14;0;0;0
74434;PMS7003;62867;52.038;29.256;2023-05-29T16:51:46;0;0;0
74434;PMS7003;62867;52.038;29.256;2023-05-29T16:56:52;0;0;0
74434;PMS7003;62867;52.038;29.256;2023-05-29T17:01:58;0;0;0
74434;PMS7003;62867;52.038;29.256;2023-05-29T17:07:18;0;0;0
74434;PMS7003;62867;52.038;29.256;2023-05-29T17:11:44;0;0;0
74434;PMS7003;62867;52.038;29.256;2023-05-29T17:16:56;0;0;0
74434;PMS7003;62867;52.038;29.256;2023-05-29T17:22:22;0;0;0
74434;PMS7003;62867;52.038;29.256;2023-05-29T17:26:44;0;0;0
74434;PMS7003;62867;52.038;29.256;2023-05-29T17:32:08;0;0;0
74434;PMS7003;62867;52.038;29.256;2023-05-29T17:36:32;0;0;0
74434;PMS7003;62867;52.038;29.256;2023-05-29T17:41:32;0;0;0
74434;PMS7003;62867;52.038;29.256;2023-05-29T17:47:22;0;0;0
74434;PMS7003;62867;52.038;29.256;2023-05-29T17:52:14;0;0;0
74434;PMS7003;62867;52.038;29.256;2023-05-29T17:57:22;0;0;0
74434;PMS7003;62867;52.038;29.256;2023-05-29T18:01:52;0;0;0
74434;PMS7003;62867;52.038;29.256;2023-05-29T18:06:58;0;0;0
74434;PMS7003;62867;52.038;29.256;2023-05-29T18:12:08;0;0;0
74434;PMS7003;62867;52.038;29.256;2023-05-29T18:16:34;0;0;0
74434;PMS7003;62867;52.038;29.256;2023-05-29T18:22:24;0;0;0
74434;PMS7003;62867;52.038;29.256;2023-05-29T18:27:24;0;0;0
74434;PMS7003;62867;52.038;29.256;2023-05-29T18:31:32;0.2;0;0
74434;PMS7003;62867;52.038;29.256;2023-05-29T18:37:08;0;0;0
74434;PMS7003;62867;52.038;29.256;2023-05-29T18:41:56;0;0;0
74434;PMS7003;62867;52.038;29.256;2023-05-29T18:46:42;0;0;0
74434;PMS7003;62867;52.038;29.256;2023-05-29T18:52:22;0;0;0
74434;PMS7003;62867;52.038;29.256;2023-05-29T18:57:06;0;0;0
74434;PMS7003;62867;52.038;29.256;2023-05-29T19:02:12;0;0;0
74434;PMS7003;62867;52.038;29.256;2023-05-29T19:06:58;0;0;0
74434;PMS7003;62867;52.038;29.256;2023-05-29T19:12:22;0.2;0;0
74434;PMS7003;62867;52.038;29.256;2023-05-29T19:16:58;0;0;0
74434;PMS7003;62867;52.038;29.256;2023-05-29T19:21:44;0.2;0;0
74434;PMS7003;62867;52.038;29.256;2023-05-29T19:26:52;0;0;0
74434;PMS7003;62867;52.038;29.256;2023-05-29T19:32:00;0.2;0.2;0
74434;PMS7003;62867;52.038;29.256;2023-05-29T19:36:58;0;0;0
74434;PMS7003;62867;52.038;29.256;2023-05-29T19:42:24;0.2;0;0
74434;PMS7003;62867;52.038;29.256;2023-05-29T19:46:48;0;0;0
74434;PMS7003;62867;52.038;29.256;2023-05-29T19:52:18;0;0;0
74434;PMS7003;62867;52.038;29.256;2023-05-29T19:56:44;0.2;0;0
74434;PMS7003;62867;52.038;29.256;2023-05-29T20:01:44;0;0;0
74434;PMS7003;62867;52.038;29.256;2023-05-29T20:07:22;0;0;0
74434;PMS7003;62867;52.038;29.256;2023-05-29T20:11:58;0;0;0
74434;PMS7003;62867;52.038;29.256;2023-05-29T20:17:24;0;0;0
74434;PMS7003;62867;52.038;29.256;2023-05-29T20:22:00;0;0;0
74434;PMS7003;62867;52.038;29.256;2023-05-29T20:27:24;0;0;0
74434;PMS7003;62867;52.038;29.256;2023-05-29T20:31:32;0;0;0
74434;PMS7003;62867;52.038;29.256;2023-05-29T20:36:58;0;0;0
74434;PMS7003;62867;52.038;29.256;2023-05-29T20:42:22;0.2;0;0
74434;PMS7003;62867;52.038;29.256;2023-05-29T20:46:40;0;0;0
74434;PMS7003;62867;52.038;29.256;2023-05-29T20:52:24;0;0;0
74434;PMS7003;62867;52.038;29.256;2023-05-29T20:57:25;0;0;0
74434;PMS7003;62867;52.038;29.256;2023-05-29T21:01:32;0;0;0
74434;PMS7003;62867;52.038;29.256;2023-05-29T21:07:04;0;0;0
74434;PMS7003;62867;52.038;29.256;2023-05-29T21:11:42;0;0;0
74434;PMS7003;62867;52.038;29.256;2023-05-29T21:16:56;0;0;0
74434;PMS7003;62867;52.038;29.256;2023-05-29T21:22:22;0;0;0
74434;PMS7003;62867;52.038;29.256;2023-05-29T21:27:06;0;0;0
74434;PMS7003;62867;52.038;29.256;2023-05-29T21:32:10;0;0;0
74434;PMS7003;62867;52.038;29.256;2023-05-29T21:36:42;0;0;0
74434;PMS7003;62867;52.038;29.256;2023-05-29T21:42:24;0;0;0
74434;PMS7003;62867;52.038;29.256;2023-05-29T21:46:42;0;0;0
74434;PMS7003;62867;52.038;29.256;2023-05-29T21:51:42;0;0;0
74434;PMS7003;62867;52.038;29.256;2023-05-29T21:56:52;0;0;0
74434;PMS7003;62867;52.038;29.256;2023-05-29T22:02:24;0;0;0
74434;PMS7003;62867;52.038;29.256;2023-05-29T22:07:22;0;0;0
74434;PMS7003;62867;52.038;29.256;2023-05-29T22:12:22;0;0;0
74434;PMS7003;62867;52.038;29.256;2023-05-29T22:17:10;0;0;0
74434;PMS7003;62867;52.038;29.256;2023-05-29T22:21:44;0;0;0
74434;PMS7003;62867;52.038;29.256;2023-05-29T22:26:40;0.2;0;0
74434;PMS7003;62867;52.038;29.256;2023-05-29T22:32:06;0;0;0
74434;PMS7003;62867;52.038;29.256;2023-05-29T22:37:22;0;0;0
74434;PMS7003;62867;52.038;29.256;2023-05-29T22:41:32;0;0;0
74434;PMS7003;62867;52.038;29.256;2023-05-29T22:47:06;0;0;0
74434;PMS7003;62867;52.038;29.256;2023-05-29T22:52:10;0;0;0
74434;PMS7003;62867;52.038;29.256;2023-05-29T22:56:32;0;0;0
74434;PMS7003;62867;52.038;29.256;2023-05-29T23:01:32;0;0;0
74434;PMS7003;62867;52.038;29.256;2023-05-29T23:06:52;0;0;0
74434;PMS7003;62867;52.038;29.256;2023-05-29T23:12:06;0;0;0
74434;PMS7003;62867;52.038;29.256;2023-05-29T23:16:32;0;0;0
74434;PMS7003;62867;52.038;29.256;2023-05-29T23:22:06;0;0;0
74434;PMS7003;62867;52.038;29.256;2023-05-29T23:27:20;0;0;0
74434;PMS7003;62867;52.038;29.256;2023-05-29T23:31:32;0;0;0
74434;PMS7003;62867;52.038;29.256;2023-05-29T23:37:02;0.4;0;0
74434;PMS7003;62867;52.038;29.256;2023-05-29T23:41:50;0;0;0
74434;PMS7003;62867;52.038;29.256;2023-05-29T23:46:38;0;0;0
74434;PMS7003;62867;52.038;29.256;2023-05-29T23:52:18;0;0;0
74434;PMS7003;62867;52.038;29.256;2023-05-29T23:57:02;0;0;0
